Time;durP1;ratioP1;P1;durP2;ratioP2;P2;SDS_P1;SDS_P2;PMS_P1;PMS_P2;Temp;Humidity;BMP_temperature;BMP_pressure;BME280_temperature;BME280_humidity;BME280_pressure;Samples;Min_cycle;Max_cycle;Signal;HPM_P1;HPM_P2
2021/12/29 00:00:25;;;;;;;20.00;10.75;;;6.30;99.90;;;;;;5115286;27;20498;-67
2021/12/29 00:02:53;;;;;;;19.23;10.85;;;6.30;99.90;;;;;;5115396;27;20061;-67
2021/12/29 00:05:20;;;;;;;30.05;13.48;;;6.30;99.90;;;;;;5115668;27;20085;-68
2021/12/29 00:07:47;;;;;;;16.88;9.95;;;6.30;99.90;;;;;;5114645;27;20043;-66
2021/12/29 00:10:15;;;;;;;16.05;8.82;;;6.30;99.90;;;;;;5115579;27;20240;-66
2021/12/29 00:12:46;;;;;;;18.85;8.68;;;6.30;99.90;;;;;;5115814;28;20506;-66
2021/12/29 00:15:16;;;;;;;14.80;8.70;;;6.30;99.90;;;;;;5115127;28;20134;-66
2021/12/29 00:17:45;;;;;;;17.23;9.88;;;6.30;99.90;;;;;;5115880;28;20505;-67
2021/12/29 00:20:14;;;;;;;21.23;9.95;;;6.30;99.90;;;;;;5115814;28;20087;-67
2021/12/29 00:22:41;;;;;;;14.25;8.43;;;6.20;99.90;;;;;;5115172;28;20050;-67
2021/12/29 00:25:09;;;;;;;19.02;10.35;;;6.30;99.90;;;;;;5115485;28;20047;-67
2021/12/29 00:27:36;;;;;;;18.30;9.95;;;6.30;99.90;;;;;;5115161;28;20127;-67
2021/12/29 00:30:04;;;;;;;15.35;8.88;;;6.20;99.90;;;;;;5114746;28;20047;-67
2021/12/29 00:32:32;;;;;;;16.13;8.93;;;6.30;99.90;;;;;;5116489;28;20051;-67
2021/12/29 00:34:59;;;;;;;17.25;8.40;;;6.30;99.90;;;;;;5115331;28;20103;-67
2021/12/29 00:37:26;;;;;;;16.13;8.18;;;6.30;99.90;;;;;;5114948;28;20051;-67
2021/12/29 00:39:53;;;;;;;21.38;9.98;;;6.30;99.90;;;;;;5115715;28;20051;-67
2021/12/29 00:42:20;;;;;;;26.48;11.65;;;6.30;99.90;;;;;;5115075;28;20043;-68
2021/12/29 00:44:49;;;;;;;16.08;9.50;;;6.30;99.90;;;;;;5115535;28;20486;-67
2021/12/29 00:47:17;;;;;;;35.10;12.45;;;6.30;99.90;;;;;;5115444;28;20402;-67
2021/12/29 00:49:46;;;;;;;28.35;12.32;;;6.30;99.90;;;;;;5114938;28;20051;-67
2021/12/29 00:52:13;;;;;;;36.05;13.75;;;6.30;99.90;;;;;;5115367;28;20441;-67
2021/12/29 00:54:42;;;;;;;35.67;12.95;;;6.40;99.90;;;;;;5115149;28;20047;-67
2021/12/29 00:57:09;;;;;;;45.22;14.15;;;6.40;99.90;;;;;;5114426;28;20107;-66
2021/12/29 00:59:36;;;;;;;41.13;13.68;;;6.40;99.90;;;;;;5114994;28;20525;-67
2021/12/29 01:02:04;;;;;;;48.55;15.98;;;6.40;99.90;;;;;;5115304;28;20051;-67
2021/12/29 01:04:31;;;;;;;30.23;13.98;;;6.40;99.90;;;;;;5114365;28;20078;-67
2021/12/29 01:06:59;;;;;;;34.45;14.70;;;6.50;99.90;;;;;;5115249;28;20105;-67
2021/12/29 01:09:26;;;;;;;37.75;14.95;;;6.50;99.90;;;;;;5115317;28;20123;-66
2021/12/29 01:11:55;;;;;;;28.83;12.85;;;6.50;99.90;;;;;;5114162;28;20111;-67
2021/12/29 01:14:24;;;;;;;29.80;14.35;;;6.50;99.90;;;;;;5115102;28;20059;-66
2021/12/29 01:16:51;;;;;;;39.92;16.45;;;6.50;99.90;;;;;;5114788;28;20491;-67
2021/12/29 01:19:22;;;;;;;31.48;15.80;;;6.50;99.90;;;;;;5120189;27;20039;-67
2021/12/29 01:21:52;;;;;;;36.13;16.92;;;6.50;99.90;;;;;;5139550;27;20078;-67
2021/12/29 01:24:22;;;;;;;33.15;14.82;;;6.50;99.90;;;;;;5157964;27;20082;-67
2021/12/29 01:26:49;;;;;;;30.07;14.53;;;6.50;99.90;;;;;;5138610;27;20142;-67
2021/12/29 01:29:17;;;;;;;34.50;15.70;;;6.60;99.90;;;;;;5139525;27;20368;-66
2021/12/29 01:31:44;;;;;;;46.55;19.83;;;6.60;99.90;;;;;;5128611;27;20075;-66
2021/12/29 01:34:12;;;;;;;39.28;17.48;;;6.60;99.90;;;;;;5118902;27;20108;-66
2021/12/29 01:36:39;;;;;;;37.17;16.25;;;6.60;99.90;;;;;;5118031;27;20100;-66
2021/12/29 01:39:09;;;;;;;34.85;15.75;;;6.70;99.90;;;;;;5117985;27;20095;-66
2021/12/29 01:41:38;;;;;;;47.17;18.40;;;6.80;99.90;;;;;;5118632;27;20086;-66
2021/12/29 01:44:06;;;;;;;51.08;20.15;;;6.60;99.90;;;;;;5118750;27;20119;-67
2021/12/29 01:46:33;;;;;;;35.92;15.57;;;6.60;99.90;;;;;;5117767;27;20514;-66
2021/12/29 01:49:01;;;;;;;69.72;22.75;;;6.60;99.90;;;;;;5118499;27;20099;-66
2021/12/29 01:51:29;;;;;;;63.65;23.73;;;6.60;99.90;;;;;;5118037;27;20043;-66
2021/12/29 01:54:04;;;;;;;42.33;16.75;;;6.60;99.90;;;;;;5117724;27;20092;-66
2021/12/29 01:56:32;;;;;;;65.50;22.45;;;6.60;99.90;;;;;;5136345;27;20082;-66
2021/12/29 01:59:00;;;;;;;90.38;24.58;;;6.50;99.90;;;;;;5135667;27;20395;-66
2021/12/29 02:01:27;;;;;;;83.75;26.05;;;6.60;99.90;;;;;;5122590;27;20047;-66
2021/12/29 02:03:55;;;;;;;58.78;20.67;;;6.60;99.90;;;;;;5130588;27;20047;-66
2021/12/29 02:06:23;;;;;;;77.03;25.08;;;6.60;99.90;;;;;;5114512;28;20483;-66
2021/12/29 02:08:53;;;;;;;60.58;19.60;;;6.60;99.90;;;;;;5113702;28;20054;-67
2021/12/29 02:11:25;;;;;;;44.50;18.73;;;6.60;99.90;;;;;;5114514;28;20488;-66
2021/12/29 02:13:52;;;;;;;43.92;19.70;;;6.60;99.90;;;;;;5113483;28;20055;-66
2021/12/29 02:16:20;;;;;;;44.17;19.20;;;6.60;99.90;;;;;;5114221;28;20086;-66
2021/12/29 02:18:51;;;;;;;48.80;18.35;;;6.60;99.90;;;;;;5114468;28;20047;-66
2021/12/29 02:21:21;;;;;;;33.83;15.95;;;6.60;99.90;;;;;;5113767;28;20101;-67
2021/12/29 02:24:04;;;;;;;32.13;15.40;;;6.60;99.90;;;;;;5114204;28;20139;-66
2021/12/29 02:26:33;;;;;;;45.50;17.58;;;6.60;99.90;;;;;;5114361;28;20101;-67
2021/12/29 02:29:02;;;;;;;30.20;13.90;;;6.70;99.90;;;;;;5113405;28;20109;-67
2021/12/29 02:31:29;;;;;;;33.42;14.82;;;6.70;99.90;;;;;;5122611;27;20099;-66
2021/12/29 02:33:57;;;;;;;26.58;12.18;;;6.70;99.90;;;;;;5134641;27;20073;-68
2021/12/29 02:36:26;;;;;;;38.30;15.25;;;6.70;99.90;;;;;;5133525;27;20043;-66
2021/12/29 02:38:55;;;;;;;25.95;11.27;;;6.80;99.90;;;;;;5134196;27;20107;-66
2021/12/29 02:41:24;;;;;;;30.38;11.82;;;6.70;99.90;;;;;;5134151;27;20093;-67
2021/12/29 02:43:58;;;;;;;25.58;9.70;;;6.70;99.90;;;;;;5133506;27;20047;-67
2021/12/29 02:46:25;;;;;;;26.55;11.30;;;6.70;99.90;;;;;;5134198;27;20051;-67
2021/12/29 02:48:57;;;;;;;26.90;11.55;;;6.80;99.90;;;;;;5133876;27;20085;-67
2021/12/29 02:51:26;;;;;;;29.27;12.35;;;6.80;99.90;;;;;;5134273;27;20409;-67
2021/12/29 02:53:53;;;;;;;35.70;12.95;;;6.80;99.90;;;;;;5134580;27;20114;-67
2021/12/29 02:56:20;;;;;;;27.70;11.70;;;6.80;99.90;;;;;;5133499;27;20107;-66
2021/12/29 02:58:47;;;;;;;31.45;12.98;;;6.80;99.90;;;;;;5133906;27;20051;-68
2021/12/29 03:01:16;;;;;;;33.78;12.32;;;6.80;99.90;;;;;;5129677;27;20055;-68
2021/12/29 03:03:43;;;;;;;32.58;12.88;;;6.80;99.90;;;;;;5112876;28;20051;-68
2021/12/29 03:06:11;;;;;;;32.45;12.73;;;6.90;99.90;;;;;;5113389;28;20096;-66
2021/12/29 03:08:41;;;;;;;32.45;12.40;;;6.90;99.90;;;;;;5118901;27;20087;-66
2021/12/29 03:11:09;;;;;;;31.60;12.67;;;6.90;99.90;;;;;;5132998;27;20043;-66
2021/12/29 03:13:38;;;;;;;39.63;13.70;;;6.90;99.90;;;;;;5133889;27;20434;-67
2021/12/29 03:16:06;;;;;;;36.50;14.13;;;6.90;99.90;;;;;;5133398;27;20049;-66
2021/12/29 03:18:34;;;;;;;29.05;12.25;;;7.00;99.90;;;;;;5132928;27;20055;-67
2021/12/29 03:21:01;;;;;;;32.97;13.38;;;7.00;99.90;;;;;;5135012;27;20509;-67
2021/12/29 03:23:28;;;;;;;25.77;11.00;;;7.00;99.90;;;;;;5133516;27;20449;-67
2021/12/29 03:25:56;;;;;;;29.35;12.30;;;7.00;99.90;;;;;;5132933;27;20051;-67
2021/12/29 03:28:24;;;;;;;23.77;12.30;;;7.00;99.90;;;;;;5133537;27;20494;-68
2021/12/29 03:30:54;;;;;;;32.00;14.30;;;7.00;99.90;;;;;;5129510;27;20056;-68
2021/12/29 03:33:23;;;;;;;34.70;14.85;;;7.00;99.90;;;;;;5112483;28;20047;-67
2021/12/29 03:35:52;;;;;;;31.92;14.32;;;7.00;99.90;;;;;;5119146;27;20128;-68
2021/12/29 03:38:21;;;;;;;29.67;14.95;;;7.00;99.90;;;;;;5111938;28;20047;-67
2021/12/29 03:40:48;;;;;;;34.38;15.05;;;7.00;99.90;;;;;;5112973;28;20480;-68
2021/12/29 03:43:16;;;;;;;32.28;13.90;;;7.00;99.90;;;;;;5111868;28;20075;-67
2021/12/29 03:45:46;;;;;;;34.60;15.65;;;7.00;99.90;;;;;;5112223;28;20055;-67
2021/12/29 03:48:14;;;;;;;27.92;13.52;;;7.00;99.90;;;;;;5112402;28;20491;-67
2021/12/29 03:50:41;;;;;;;30.17;14.80;;;7.10;99.90;;;;;;5112755;28;20140;-68
2021/12/29 03:53:09;;;;;;;37.72;17.45;;;7.10;99.90;;;;;;5112066;27;20070;-67
2021/12/29 03:55:36;;;;;;;42.80;17.65;;;7.10;99.90;;;;;;5112645;28;20100;-67
2021/12/29 03:58:03;;;;;;;30.48;15.77;;;7.10;99.90;;;;;;5112537;28;20154;-67
2021/12/29 04:00:31;;;;;;;34.65;15.65;;;7.10;99.90;;;;;;5118443;27;20083;-67
2021/12/29 04:02:58;;;;;;;37.40;16.45;;;7.10;99.90;;;;;;5115652;27;20043;-67
2021/12/29 04:05:26;;;;;;;31.13;15.30;;;7.10;99.90;;;;;;5115809;28;20082;-68
2021/12/29 04:07:54;;;;;;;37.33;16.50;;;7.20;99.90;;;;;;5115119;27;20051;-67
2021/12/29 04:10:21;;;;;;;39.88;17.27;;;7.20;99.90;;;;;;5115810;28;20445;-67
2021/12/29 04:12:48;;;;;;;40.75;16.70;;;7.20;99.90;;;;;;5115614;28;20479;-66
2021/12/29 04:15:16;;;;;;;28.63;14.38;;;7.20;99.90;;;;;;5114796;28;20059;-67
2021/12/29 04:17:46;;;;;;;22.63;12.43;;;7.20;99.90;;;;;;5115758;28;20085;-67
2021/12/29 04:23:00;;;;;;;29.92;13.93;;;7.20;99.90;;;;;;5121979;27;20575;-67
2021/12/29 04:25:29;;;;;;;32.78;16.27;;;7.20;99.90;;;;;;5136116;27;20562;-66
2021/12/29 04:27:57;;;;;;;30.38;14.85;;;7.10;99.90;;;;;;5135527;27;20055;-66
2021/12/29 04:30:26;;;;;;;27.40;13.95;;;7.10;99.90;;;;;;5136233;27;20102;-66
2021/12/29 04:32:54;;;;;;;33.35;15.30;;;7.10;99.90;;;;;;5135912;27;20074;-66
2021/12/29 04:35:21;;;;;;;25.00;13.55;;;7.10;99.90;;;;;;5135350;27;20124;-66
2021/12/29 04:37:49;;;;;;;28.58;14.73;;;7.10;99.90;;;;;;5127982;28;20108;-66
2021/12/29 04:40:16;;;;;;;29.42;15.77;;;7.10;99.90;;;;;;5115281;28;20112;-66
2021/12/29 04:42:43;;;;;;;34.10;15.98;;;7.20;99.90;;;;;;5119032;27;20078;-67
2021/12/29 04:45:11;;;;;;;25.38;13.90;;;7.10;99.90;;;;;;5136268;27;20104;-66
2021/12/29 04:47:41;;;;;;;33.00;16.52;;;7.10;99.90;;;;;;5136051;27;20538;-66
2021/12/29 04:50:23;;;;;;;31.23;15.80;;;7.10;99.90;;;;;;5135360;27;20130;-67
2021/12/29 04:52:52;;;;;;;24.42;14.75;;;7.10;99.90;;;;;;5131549;28;20490;-66
2021/12/29 04:55:19;;;;;;;27.77;15.15;;;7.10;99.90;;;;;;5118601;27;20046;-67
2021/12/29 04:57:46;;;;;;;31.67;15.70;;;7.10;99.90;;;;;;5118855;27;20285;-67
2021/12/29 05:00:15;;;;;;;36.10;17.45;;;7.10;99.90;;;;;;5136234;27;20498;-67
2021/12/29 05:02:42;;;;;;;28.10;14.38;;;7.10;99.90;;;;;;5118424;27;20043;-67
2021/12/29 05:05:21;;;;;;;30.20;14.82;;;7.10;99.90;;;;;;5119136;27;20138;-67
2021/12/29 05:10:34;;;;;;;34.55;16.48;;;7.10;99.90;;;;;;5118565;27;20124;-67
2021/12/29 05:13:01;;;;;;;32.60;16.13;;;7.10;99.90;;;;;;5119142;27;20086;-67
2021/12/29 05:15:28;;;;;;;37.60;15.80;;;7.10;99.90;;;;;;5137201;27;20078;-66
2021/12/29 05:17:56;;;;;;;29.65;15.23;;;7.10;99.90;;;;;;5118308;27;20055;-67
2021/12/29 05:20:24;;;;;;;31.98;14.98;;;7.10;99.90;;;;;;5118962;27;20047;-67
2021/12/29 05:22:51;;;;;;;33.35;16.27;;;7.10;99.90;;;;;;5119228;27;20112;-68
2021/12/29 05:25:18;;;;;;;33.45;15.75;;;7.10;99.90;;;;;;5135438;27;20099;-68
2021/12/29 05:27:45;;;;;;;27.77;14.98;;;7.20;99.90;;;;;;5118289;27;20132;-67
2021/12/29 05:30:12;;;;;;;27.33;15.68;;;7.10;99.90;;;;;;5131643;27;20046;-67
2021/12/29 05:32:39;;;;;;;43.13;17.38;;;7.20;99.90;;;;;;5138269;27;20498;-67
2021/12/29 05:35:07;;;;;;;38.08;15.65;;;7.20;99.90;;;;;;5139145;27;20058;-66
2021/12/29 05:37:35;;;;;;;39.35;17.95;;;7.20;99.90;;;;;;5127310;27;20514;-67
2021/12/29 05:40:02;;;;;;;34.85;16.23;;;7.20;99.90;;;;;;5134942;27;20079;-66
2021/12/29 05:42:29;;;;;;;30.98;15.82;;;7.20;99.90;;;;;;5135588;27;20078;-66
2021/12/29 05:44:56;;;;;;;28.13;14.57;;;7.20;99.90;;;;;;5133931;27;20617;-66
2021/12/29 05:47:23;;;;;;;33.83;17.60;;;7.20;99.90;;;;;;5135887;27;20066;-66
2021/12/29 05:49:50;;;;;;;32.47;15.02;;;7.20;99.90;;;;;;5132483;27;20093;-66
2021/12/29 05:52:18;;;;;;;28.67;13.73;;;7.20;99.90;;;;;;5133312;27;20115;-66
2021/12/29 05:54:46;;;;;;;26.65;14.18;;;7.20;99.90;;;;;;5135294;27;20047;-66
2021/12/29 05:57:13;;;;;;;25.67;13.90;;;7.20;99.90;;;;;;5135086;27;20059;-66
2021/12/29 05:59:40;;;;;;;33.63;15.90;;;7.20;99.90;;;;;;5132455;27;20095;-66
2021/12/29 06:02:07;;;;;;;31.83;13.65;;;7.20;99.90;;;;;;5132417;27;20050;-66
2021/12/29 06:04:33;;;;;;;29.00;14.80;;;7.20;99.90;;;;;;5133049;27;20449;-67
2021/12/29 06:07:00;;;;;;;25.70;13.60;;;7.20;99.90;;;;;;5133709;27;20478;-66
2021/12/29 06:09:27;;;;;;;29.48;14.57;;;7.20;99.90;;;;;;5131157;27;20112;-65
2021/12/29 06:11:55;;;;;;;20.75;12.05;;;7.20;99.90;;;;;;5135300;27;20495;-65
2021/12/29 06:14:22;;;;;;;35.72;16.00;;;7.20;99.90;;;;;;5132503;27;20092;-65
2021/12/29 06:16:49;;;;;;;25.33;13.00;;;7.20;99.90;;;;;;5133885;27;20104;-66
2021/12/29 06:19:16;;;;;;;25.95;13.38;;;7.20;99.90;;;;;;5133310;27;20047;-65
2021/12/29 06:21:43;;;;;;;25.17;13.45;;;7.20;99.90;;;;;;5134027;27;20082;-66
2021/12/29 06:24:10;;;;;;;28.92;15.80;;;7.20;99.90;;;;;;5134344;27;20042;-66
2021/12/29 06:26:37;;;;;;;25.98;13.68;;;7.20;99.90;;;;;;5135344;27;20490;-66
2021/12/29 06:29:05;;;;;;;33.80;17.52;;;7.20;99.90;;;;;;5134990;27;20109;-66
2021/12/29 06:31:33;;;;;;;32.72;15.25;;;7.20;99.90;;;;;;5132730;27;20490;-66
2021/12/29 06:34:00;;;;;;;28.95;14.77;;;7.20;99.90;;;;;;5149160;27;20043;-66
2021/12/29 06:36:27;;;;;;;29.27;15.60;;;7.20;99.90;;;;;;5139104;27;20042;-67
2021/12/29 06:38:54;;;;;;;34.42;15.50;;;7.20;99.90;;;;;;5131987;27;20441;-65
2021/12/29 06:41:20;;;;;;;36.95;16.58;;;7.20;99.90;;;;;;5133332;27;20046;-66
2021/12/29 06:43:47;;;;;;;43.03;19.25;;;7.30;99.90;;;;;;5130567;27;20103;-66
2021/12/29 06:46:15;;;;;;;35.80;16.75;;;7.30;99.90;;;;;;5131708;27;20552;-66
2021/12/29 06:48:42;;;;;;;40.75;18.17;;;7.40;99.90;;;;;;5132760;27;20482;-65
2021/12/29 06:51:09;;;;;;;37.08;16.38;;;7.30;99.90;;;;;;5128660;27;20108;-66
2021/12/29 06:53:36;;;;;;;35.10;17.52;;;7.30;99.90;;;;;;5119463;27;20158;-66
2021/12/29 06:56:05;;;;;;;34.00;16.60;;;7.30;99.90;;;;;;5131209;27;20605;-65
2021/12/29 06:58:32;;;;;;;36.00;16.50;;;7.30;99.90;;;;;;5135900;27;20047;-65
2021/12/29 07:00:59;;;;;;;50.42;19.50;;;7.30;99.90;;;;;;5127248;27;20094;-65
2021/12/29 07:03:27;;;;;;;42.55;18.98;;;7.30;99.90;;;;;;5119224;27;20050;-66
2021/12/29 07:05:54;;;;;;;40.47;18.00;;;7.30;99.90;;;;;;5130927;27;20078;-65
2021/12/29 07:08:21;;;;;;;40.40;19.30;;;7.20;99.90;;;;;;5131820;27;20057;-66
2021/12/29 07:10:48;;;;;;;53.55;19.20;;;7.30;99.90;;;;;;5127469;27;20133;-66
2021/12/29 07:13:15;;;;;;;45.08;18.48;;;7.30;99.90;;;;;;5130252;27;20074;-66
2021/12/29 07:15:42;;;;;;;59.33;21.35;;;7.30;99.90;;;;;;5132072;27;20070;-67
2021/12/29 07:18:09;;;;;;;73.32;23.83;;;7.30;99.90;;;;;;5127651;27;20047;-66
2021/12/29 07:20:38;;;;;;;51.65;19.95;;;7.40;99.90;;;;;;5134602;27;20051;-67
2021/12/29 07:23:05;;;;;;;60.22;20.92;;;7.30;99.90;;;;;;5132012;27;20047;-67
2021/12/29 07:25:32;;;;;;;45.90;16.90;;;7.30;99.90;;;;;;5134403;27;20070;-67
2021/12/29 07:27:59;;;;;;;50.45;19.05;;;7.30;99.90;;;;;;5132062;27;20413;-66
2021/12/29 07:30:26;;;;;;;58.78;20.13;;;7.30;99.90;;;;;;5129927;27;20125;-66
2021/12/29 07:32:53;;;;;;;33.92;16.67;;;7.30;99.90;;;;;;5149951;27;20086;-66
2021/12/29 07:35:20;;;;;;;46.53;18.15;;;7.30;99.90;;;;;;5134596;27;20111;-66
2021/12/29 07:37:49;;;;;;;57.92;21.67;;;7.30;99.90;;;;;;5133513;27;20474;-66
2021/12/29 07:40:16;;;;;;;48.80;17.85;;;7.30;99.90;;;;;;5135075;27;20121;-66
2021/12/29 07:42:44;;;;;;;34.60;15.73;;;7.30;99.90;;;;;;5132676;27;20111;-66
2021/12/29 07:45:12;;;;;;;38.42;16.55;;;7.30;99.90;;;;;;5129321;27;20057;-66
2021/12/29 07:47:45;;;;;;;39.08;16.00;;;7.40;99.90;;;;;;5133244;27;20046;-66
2021/12/29 07:50:12;;;;;;;32.67;15.18;;;8.20;99.90;;;;;;5148557;27;20047;-67
2021/12/29 07:52:39;;;;;;;34.50;14.35;;;7.40;99.90;;;;;;5143270;27;20071;-66
2021/12/29 07:55:08;;;;;;;40.38;16.70;;;7.40;99.90;;;;;;5130761;27;20081;-66
2021/12/29 07:57:35;;;;;;;31.17;15.75;;;7.40;99.90;;;;;;5131608;27;20083;-66
2021/12/29 08:00:03;;;;;;;30.13;13.10;;;7.40;99.90;;;;;;5131789;27;20542;-66
2021/12/29 08:02:29;;;;;;;31.42;14.23;;;7.40;99.90;;;;;;5124814;27;20047;-66
2021/12/29 08:04:58;;;;;;;35.13;15.52;;;7.50;99.90;;;;;;5131071;27;20078;-66
2021/12/29 08:07:26;;;;;;;36.60;15.15;;;7.40;99.90;;;;;;5131827;27;20054;-66
2021/12/29 08:09:53;;;;;;;33.30;14.60;;;7.50;99.90;;;;;;5131045;27;20057;-66
2021/12/29 08:12:21;;;;;;;28.30;13.60;;;7.50;99.90;;;;;;5133137;27;20074;-66
2021/12/29 08:14:49;;;;;;;36.88;14.82;;;7.50;99.90;;;;;;5133418;27;20066;-66
2021/12/29 08:17:16;;;;;;;32.63;14.95;;;7.50;99.90;;;;;;5130752;27;20051;-66
2021/12/29 08:19:43;;;;;;;38.58;16.02;;;7.50;99.90;;;;;;5124949;27;20054;-66
2021/12/29 08:22:11;;;;;;;22.40;12.00;;;7.50;99.90;;;;;;5150886;27;20398;-66
2021/12/29 08:24:38;;;;;;;26.38;11.60;;;7.50;99.90;;;;;;5148776;27;20074;-66
2021/12/29 08:27:06;;;;;;;26.40;12.68;;;7.50;99.90;;;;;;5131552;27;20046;-66
2021/12/29 08:29:34;;;;;;;22.33;10.55;;;7.50;99.90;;;;;;5152894;27;20039;-66
2021/12/29 08:32:01;;;;;;;23.42;11.52;;;7.50;99.90;;;;;;5128896;27;20078;-66
2021/12/29 08:34:28;;;;;;;20.60;12.18;;;7.50;99.90;;;;;;5126755;27;20092;-66
2021/12/29 08:36:55;;;;;;;28.25;11.88;;;7.50;99.90;;;;;;5137162;27;20051;-66
2021/12/29 08:39:23;;;;;;;28.48;11.55;;;7.50;99.90;;;;;;5138431;27;20082;-66
2021/12/29 08:41:51;;;;;;;38.25;12.45;;;7.50;99.90;;;;;;5135017;27;20057;-66
2021/12/29 08:44:18;;;;;;;29.75;12.95;;;7.40;99.90;;;;;;5135998;27;20514;-66
2021/12/29 08:46:47;;;;;;;41.08;15.43;;;7.40;99.90;;;;;;5135927;27;20075;-66
2021/12/29 08:49:15;;;;;;;41.45;16.70;;;7.40;99.90;;;;;;5153179;27;20038;-66
2021/12/29 08:51:42;;;;;;;33.92;13.95;;;7.50;99.90;;;;;;5135649;27;20104;-66
2021/12/29 08:54:09;;;;;;;30.60;14.20;;;7.50;99.90;;;;;;5129405;27;20123;-66
2021/12/29 08:56:36;;;;;;;31.48;14.32;;;7.50;99.90;;;;;;5136845;27;20126;-66
2021/12/29 08:59:03;;;;;;;29.15;13.38;;;7.60;99.90;;;;;;5131712;27;20086;-66
2021/12/29 09:01:30;;;;;;;34.17;14.20;;;7.60;99.90;;;;;;5151305;27;20094;-66
2021/12/29 09:03:59;;;;;;;46.53;17.42;;;7.60;99.90;;;;;;5137167;27;20428;-66
2021/12/29 09:06:25;;;;;;;34.13;14.05;;;7.60;99.90;;;;;;5135882;27;20082;-65
2021/12/29 09:08:54;;;;;;;58.15;19.45;;;7.60;99.90;;;;;;5136314;27;20098;-66
2021/12/29 09:11:21;;;;;;;28.95;12.77;;;7.70;99.90;;;;;;5137927;27;20125;-66
2021/12/29 09:13:48;;;;;;;71.85;21.33;;;7.70;99.90;;;;;;5133035;27;20074;-66
2021/12/29 09:16:14;;;;;;;52.35;14.00;;;7.70;99.90;;;;;;5131486;27;20095;-67
2021/12/29 09:18:41;;;;;;;62.60;18.48;;;7.70;99.90;;;;;;5137757;27;20099;-66
2021/12/29 09:21:14;;;;;;;45.15;12.70;;;7.80;99.90;;;;;;5135383;27;20051;-66
2021/12/29 09:23:42;;;;;;;38.15;11.38;;;7.70;99.90;;;;;;5132876;27;20104;-66
2021/12/29 09:26:12;;;;;;;38.60;12.52;;;7.80;99.90;;;;;;5130700;27;20051;-66
2021/12/29 09:28:39;;;;;;;43.05;11.43;;;7.80;99.90;;;;;;5137037;27;20082;-66
2021/12/29 09:31:06;;;;;;;62.03;15.70;;;7.80;99.90;;;;;;5131161;27;20050;-66
2021/12/29 09:33:34;;;;;;;36.20;11.65;;;7.80;99.90;;;;;;5131492;27;20466;-66
2021/12/29 09:36:02;;;;;;;48.78;12.20;;;7.80;99.90;;;;;;5135165;27;20050;-66
2021/12/29 09:38:34;;;;;;;41.15;11.63;;;7.80;99.90;;;;;;5136663;27;20059;-66
2021/12/29 09:41:02;;;;;;;78.05;15.93;;;7.90;99.90;;;;;;5135967;27;20050;-66
2021/12/29 09:43:29;;;;;;;55.63;10.70;;;7.90;99.90;;;;;;5136846;27;20122;-66
2021/12/29 09:45:56;;;;;;;131.30;21.52;;;7.90;99.90;;;;;;5132787;27;20150;-66
2021/12/29 09:48:23;;;;;;;66.80;14.50;;;7.90;99.90;;;;;;5135291;27;20498;-66
2021/12/29 09:50:51;;;;;;;85.90;14.52;;;7.90;99.90;;;;;;5136583;27;20107;-66
2021/12/29 09:53:19;;;;;;;156.35;23.63;;;7.90;99.90;;;;;;5129975;27;20129;-66
2021/12/29 09:55:48;;;;;;;41.00;10.10;;;8.00;99.90;;;;;;5137317;27;20137;-67
2021/12/29 09:58:16;;;;;;;51.30;12.52;;;8.00;99.90;;;;;;5138508;27;20038;-65
2021/12/29 10:00:45;;;;;;;56.05;14.68;;;8.10;99.90;;;;;;5133431;27;20086;-66
2021/12/29 10:03:14;;;;;;;23.05;8.88;;;8.10;99.90;;;;;;5125965;27;20079;-65
2021/12/29 10:05:43;;;;;;;30.35;9.20;;;8.10;99.90;;;;;;5130076;27;20459;-66
2021/12/29 10:08:12;;;;;;;26.67;9.02;;;8.20;99.90;;;;;;5126147;27;20086;-65
2021/12/29 10:10:44;;;;;;;18.45;7.75;;;8.20;99.90;;;;;;5136845;27;20105;-66
2021/12/29 10:13:13;;;;;;;21.85;9.98;;;8.20;99.90;;;;;;5134603;27;20054;-65
2021/12/29 10:15:42;;;;;;;16.73;8.93;;;8.20;99.90;;;;;;5135630;27;20090;-66
2021/12/29 10:18:12;;;;;;;17.13;8.38;;;8.20;99.90;;;;;;5136731;27;20097;-65
2021/12/29 10:20:48;;;;;;;17.25;7.88;;;8.20;99.90;;;;;;5135288;27;20091;-65
2021/12/29 10:23:22;;;;;;;17.65;8.07;;;8.20;99.90;;;;;;5130150;27;20078;-65
2021/12/29 10:25:49;;;;;;;17.52;8.57;;;8.20;99.90;;;;;;5130777;27;20055;-65
2021/12/29 10:28:23;;;;;;;18.98;8.90;;;8.20;99.90;;;;;;5135088;27;20046;-66
2021/12/29 10:31:00;;;;;;;17.88;9.02;;;8.30;99.90;;;;;;5128075;27;20074;-65
2021/12/29 10:33:32;;;;;;;19.35;9.13;;;8.20;99.90;;;;;;5134250;27;20584;-66
2021/12/29 10:36:20;;;;;;;18.38;9.30;;;8.30;99.90;;;;;;5136243;27;20089;-66
2021/12/29 10:38:51;;;;;;;16.33;8.38;;;8.30;99.90;;;;;;5131099;27;20074;-66
2021/12/29 10:41:17;;;;;;;16.27;8.93;;;8.30;99.90;;;;;;5130785;27;20054;-66
2021/12/29 10:43:55;;;;;;;13.50;7.40;;;8.30;99.90;;;;;;5135958;27;20113;-66
2021/12/29 10:46:23;;;;;;;16.45;8.13;;;8.30;99.90;;;;;;5134498;27;20058;-66
2021/12/29 10:48:51;;;;;;;15.32;7.53;;;8.40;99.90;;;;;;5133432;27;20367;-66
2021/12/29 10:51:20;;;;;;;10.82;6.88;;;8.40;99.90;;;;;;5130397;27;20047;-66
2021/12/29 10:53:47;;;;;;;16.30;7.78;;;8.50;99.90;;;;;;5132870;27;20475;-66
2021/12/29 10:56:22;;;;;;;16.42;7.95;;;8.40;99.90;;;;;;5134173;27;20046;-66
2021/12/29 10:58:50;;;;;;;17.55;7.53;;;8.50;99.90;;;;;;5131511;27;20054;-66
2021/12/29 11:01:18;;;;;;;12.32;7.05;;;8.40;99.90;;;;;;5117856;27;20134;-66
2021/12/29 11:03:47;;;;;;;16.98;7.72;;;8.40;99.90;;;;;;5120038;27;20082;-66
2021/12/29 11:06:17;;;;;;;18.42;6.88;;;8.40;99.90;;;;;;5133336;27;20421;-66
2021/12/29 11:08:49;;;;;;;13.98;6.57;;;8.40;99.90;;;;;;5129454;27;20101;-66
2021/12/29 11:11:18;;;;;;;12.85;6.60;;;8.30;99.90;;;;;;5125834;27;20197;-65
2021/12/29 11:13:46;;;;;;;17.92;7.45;;;8.30;99.90;;;;;;5109212;27;20492;-65
2021/12/29 11:16:13;;;;;;;15.95;7.22;;;8.30;99.90;;;;;;5115770;27;20120;-65
2021/12/29 11:18:44;;;;;;;18.85;6.70;;;8.30;99.90;;;;;;5115755;27;20074;-65
2021/12/29 11:21:12;;;;;;;13.70;6.18;;;8.30;99.90;;;;;;5115942;27;20491;-65
2021/12/29 11:23:41;;;;;;;14.88;7.35;;;8.30;99.90;;;;;;5115440;27;20058;-65
2021/12/29 11:26:11;;;;;;;14.75;6.53;;;8.30;99.90;;;;;;5135177;27;20047;-67
2021/12/29 11:28:39;;;;;;;21.60;7.23;;;8.30;99.90;;;;;;5120317;27;20593;-67
2021/12/29 11:31:08;;;;;;;14.80;6.30;;;8.30;99.90;;;;;;5110843;27;20050;-67
2021/12/29 11:33:37;;;;;;;15.60;7.25;;;8.30;99.90;;;;;;5123459;27;20062;-66
2021/12/29 11:36:06;;;;;;;12.82;5.78;;;8.30;99.90;;;;;;5148595;27;20049;-66
2021/12/29 11:38:34;;;;;;;10.80;5.40;;;8.30;99.90;;;;;;5127830;27;20050;-66
2021/12/29 11:41:03;;;;;;;17.10;6.07;;;8.30;99.90;;;;;;5134912;27;20514;-67
2021/12/29 11:43:30;;;;;;;12.27;6.93;;;8.40;99.90;;;;;;5125483;27;20082;-67
2021/12/29 11:45:57;;;;;;;15.48;7.32;;;8.40;99.90;;;;;;5129151;27;20078;-67
2021/12/29 11:48:26;;;;;;;18.13;6.97;;;8.50;99.90;;;;;;5134143;27;20042;-67
2021/12/29 11:50:56;;;;;;;15.13;6.22;;;8.50;99.90;;;;;;5130979;27;20165;-67
2021/12/29 11:53:32;;;;;;;13.82;6.47;;;8.50;99.90;;;;;;5124590;27;20463;-67
2021/12/29 11:56:01;;;;;;;15.43;7.00;;;8.50;99.90;;;;;;5146813;27;20074;-66
2021/12/29 11:58:32;;;;;;;13.85;6.53;;;8.60;99.90;;;;;;5136304;27;20448;-66
2021/12/29 12:01:01;;;;;;;;;;;8.60;99.90;;;;;;5134423;27;20063;-67
2021/12/29 12:03:39;;;;;;;25.10;7.40;;;8.60;99.90;;;;;;5127932;27;19972;-67
2021/12/29 12:06:07;;;;;;;16.67;7.03;;;8.60;99.90;;;;;;5129282;27;20134;-67
2021/12/29 12:08:35;;;;;;;17.95;6.93;;;8.70;99.90;;;;;;5128853;27;20050;-65
2021/12/29 12:11:02;;;;;;;17.42;7.93;;;8.70;99.90;;;;;;5134813;27;20111;-66
2021/12/29 12:13:31;;;;;;;15.25;7.25;;;8.70;99.90;;;;;;5135596;27;20070;-65
2021/12/29 12:16:09;;;;;;;16.15;7.00;;;8.70;99.90;;;;;;5134294;27;20047;-65
2021/12/29 12:18:49;;;;;;;15.38;7.07;;;8.70;99.90;;;;;;5129204;27;20111;-65
2021/12/29 12:21:25;;;;;;;17.20;6.45;;;8.70;99.90;;;;;;5130217;27;20054;-65
2021/12/29 12:23:54;;;;;;;13.80;6.30;;;8.70;99.90;;;;;;5131108;28;20111;-66
2021/12/29 12:26:22;;;;;;;18.58;6.25;;;8.70;99.90;;;;;;5132937;27;20130;-65
2021/12/29 12:28:52;;;;;;;21.20;6.05;;;8.70;99.90;;;;;;5134272;27;20057;-67
2021/12/29 12:31:24;;;;;;;11.27;5.65;;;8.70;99.90;;;;;;5129770;27;20104;-67
2021/12/29 12:33:52;;;;;;;17.30;6.38;;;8.70;99.90;;;;;;5144322;27;20071;-66
2021/12/29 12:36:19;;;;;;;12.57;5.35;;;8.70;99.90;;;;;;5133939;27;20249;-67
2021/12/29 12:38:47;;;;;;;11.90;5.72;;;8.60;99.90;;;;;;5125688;27;20047;-67
2021/12/29 12:41:18;;;;;;;16.60;5.35;;;8.60;99.90;;;;;;5123349;27;20166;-67
2021/12/29 12:43:53;;;;;;;10.52;4.57;;;8.70;99.90;;;;;;5124693;27;20054;-67
2021/12/29 12:46:34;;;;;;;16.30;5.00;;;8.70;99.90;;;;;;5123772;28;20075;-67
2021/12/29 12:49:13;;;;;;;12.65;4.10;;;8.70;99.90;;;;;;5146455;27;20086;-65
2021/12/29 12:51:40;;;;;;;15.05;4.80;;;8.60;99.90;;;;;;5133613;27;20059;-66